Terminal Aerodrome Forecast
Issued by NWS Houston/Galveston, TX

Home | Current Version | Previous Version | Text Only | Print | Product List | Glossary On
Versions: 1 2 3 4 5 6 7 8 9 10 11 12 13 14 15 16 17 18 19 20 21 22 23 24 25 26 27 28 29 30 31 32 33 34 35 36 37 38 39 40 41 42 43 44
447
FTUS44 KHGX 260520
TAFCLL
TAF
KCLL 260520Z 2606/2706 11004KT P6SM FEW020 SCT090 BKN250
     FM261100 08003KT P6SM SCT015
     FM261500 11004KT P6SM SCT040
     FM261800 10004KT P6SM VCTS BKN040CB OVC150
      TEMPO 2619/2623 VRB20KT 2SM TSRA BKN025CB OVC050
     FM270300 12003KT P6SM SCT035 OVC150=

USA.gov is the U.S. government's official web portal to all federal, state and local government web resources and services.